createdAt,value
2023-05-04T00:00:28.155Z,6.63
2023-05-04T00:02:56.227Z,6.47
2023-05-04T00:05:24.263Z,6.35
2023-05-04T00:07:53.444Z,6.40
2023-05-04T00:10:21.631Z,7.13
2023-05-04T00:12:49.447Z,6.43
2023-05-04T00:15:17.268Z,6.57
2023-05-04T00:17:45.098Z,6.18
2023-05-04T00:20:13.797Z,6.90
2023-05-04T00:22:42.136Z,6.75
2023-05-04T00:25:11.706Z,6.97
2023-05-04T00:27:39.480Z,6.20
2023-05-04T00:30:08.710Z,6.68
2023-05-04T00:32:36.622Z,7.00
2023-05-04T00:35:04.974Z,6.32
2023-05-04T00:37:32.772Z,6.40
2023-05-04T00:40:00.515Z,6.65
2023-05-04T00:42:29.687Z,7.63
2023-05-04T00:44:57.533Z,7.15
2023-05-04T00:47:25.730Z,7.40
2023-05-04T00:49:54.132Z,6.82
2023-05-04T00:52:22.354Z,6.97
2023-05-04T00:54:50.469Z,7.97
2023-05-04T00:57:18.460Z,7.53
2023-05-04T00:59:47.886Z,7.57
2023-05-04T01:02:15.725Z,7.53
2023-05-04T01:04:43.545Z,7.88
2023-05-04T01:07:21.279Z,8.27
2023-05-04T01:09:55.047Z,7.68
2023-05-04T01:12:29.992Z,6.72
2023-05-04T01:15:01.584Z,7.53
2023-05-04T01:17:29.526Z,7.82
2023-05-04T01:19:57.412Z,7.45
2023-05-04T01:22:26.642Z,7.25
2023-05-04T01:24:54.604Z,7.32
2023-05-04T01:27:27.240Z,7.47
2023-05-04T01:30:01.307Z,6.93
2023-05-04T01:32:30.487Z,7.47
2023-05-04T01:34:58.853Z,7.05
2023-05-04T01:37:28.271Z,7.15
2023-05-04T01:39:56.232Z,7.78
2023-05-04T01:42:24.061Z,7.60
2023-05-04T01:44:51.911Z,6.63
2023-05-04T01:47:19.790Z,8.57
2023-05-04T01:49:47.626Z,7.20
2023-05-04T01:52:15.893Z,7.75
2023-05-04T01:54:45.066Z,7.57
2023-05-04T01:57:12.965Z,7.10
2023-05-04T01:59:40.730Z,8.00
2023-05-04T02:02:08.746Z,8.55
2023-05-04T02:04:37.127Z,7.97
2023-05-04T02:07:08.031Z,7.82
2023-05-04T02:09:36.724Z,7.80
2023-05-04T02:12:06.359Z,7.88
2023-05-04T02:14:34.202Z,8.15
2023-05-04T02:17:02.069Z,7.43
2023-05-04T02:19:29.861Z,7.97
2023-05-04T02:21:57.719Z,7.60
2023-05-04T02:24:25.513Z,7.60
2023-05-04T02:26:53.277Z,8.40
2023-05-04T02:29:22.474Z,7.80
2023-05-04T02:31:50.700Z,8.05
2023-05-04T02:34:18.606Z,8.00
2023-05-04T02:36:47.049Z,6.95
2023-05-04T02:39:15.098Z,7.47
2023-05-04T02:41:45.984Z,8.30
2023-05-04T02:44:13.738Z,7.70
2023-05-04T02:46:43.360Z,7.60
2023-05-04T02:49:11.473Z,8.10
2023-05-04T02:51:39.234Z,7.35
2023-05-04T02:54:08.475Z,7.40
2023-05-04T02:56:36.360Z,7.63
2023-05-04T02:59:04.159Z,7.53
2023-05-04T03:01:34.734Z,7.65
2023-05-04T03:04:04.452Z,7.45
2023-05-04T03:06:32.308Z,7.18
2023-05-04T03:09:00.790Z,7.63
2023-05-04T03:11:28.665Z,7.95
2023-05-04T03:13:56.458Z,8.35
2023-05-04T03:16:24.304Z,8.07
2023-05-04T03:18:52.162Z,7.30
2023-05-04T03:21:21.463Z,8.05
2023-05-04T03:23:49.286Z,7.75
2023-05-04T03:26:17.197Z,7.90
2023-05-04T03:28:45.055Z,7.55
2023-05-04T03:31:12.846Z,8.13
2023-05-04T03:33:40.679Z,7.85
2023-05-04T03:36:10.202Z,7.18
2023-05-04T03:38:39.294Z,7.72
2023-05-04T03:41:07.128Z,7.63
2023-05-04T03:43:35.087Z,7.50
2023-05-04T03:46:03.135Z,8.10
2023-05-04T03:48:31.002Z,7.55
2023-05-04T03:50:58.878Z,7.75
2023-05-04T03:53:26.742Z,7.55
2023-05-04T03:55:55.932Z,9.90
2023-05-04T03:58:23.735Z,7.47
2023-05-04T04:00:51.491Z,7.53
2023-05-04T04:03:19.663Z,7.35
2023-05-04T04:05:47.790Z,8.20
2023-05-04T04:08:15.617Z,7.07
2023-05-04T04:10:43.477Z,7.05
2023-05-04T04:13:13.025Z,8.52
2023-05-04T04:15:42.781Z,7.95
2023-05-04T04:18:10.646Z,8.07
2023-05-04T04:20:38.491Z,7.97
2023-05-04T04:23:06.312Z,7.65
2023-05-04T04:25:34.154Z,7.40
2023-05-04T04:28:05.286Z,8.18
2023-05-04T04:30:34.456Z,8.18
2023-05-04T04:33:02.396Z,7.82
2023-05-04T04:35:30.238Z,7.80
2023-05-04T04:37:58.066Z,8.30
2023-05-04T04:40:26.387Z,7.72
2023-05-04T04:42:54.159Z,6.72
2023-05-04T04:45:22.101Z,7.82
2023-05-04T04:47:52.301Z,7.22
2023-05-04T04:50:20.503Z,7.93
2023-05-04T04:52:48.362Z,8.15
2023-05-04T04:55:17.333Z,7.07
2023-05-04T04:57:45.126Z,7.78
2023-05-04T05:00:14.556Z,7.35
2023-05-04T05:02:45.142Z,7.25
2023-05-04T05:05:14.573Z,9.50
2023-05-04T05:07:44.980Z,7.18
2023-05-04T05:10:12.834Z,7.05
2023-05-04T05:12:40.673Z,7.70
2023-05-04T05:15:09.452Z,7.28
2023-05-04T05:17:38.456Z,7.43
2023-05-04T05:20:10.247Z,7.40
2023-05-04T05:22:39.985Z,7.55
2023-05-04T05:25:08.647Z,7.50
2023-05-04T05:27:36.928Z,7.50
2023-05-04T05:30:06.422Z,7.30
2023-05-04T05:32:34.959Z,7.75
2023-05-04T05:35:02.897Z,8.07
2023-05-04T05:37:30.696Z,7.15
2023-05-04T05:39:59.890Z,7.15
2023-05-04T05:42:32.563Z,7.35
2023-05-04T05:45:01.816Z,6.95
2023-05-04T05:47:29.653Z,7.93
2023-05-04T05:49:57.489Z,7.18
2023-05-04T05:52:25.231Z,6.70
2023-05-04T05:54:53.023Z,7.07
2023-05-04T05:57:22.171Z,7.18
2023-05-04T05:59:49.957Z,6.40
2023-05-04T06:02:17.747Z,8.18
2023-05-04T06:04:46.059Z,7.15
2023-05-04T06:07:14.652Z,6.72
2023-05-04T06:09:43.095Z,6.82
2023-05-04T06:12:13.508Z,7.32
2023-05-04T06:14:42.933Z,6.72
2023-05-04T06:17:10.735Z,7.13
2023-05-04T06:19:39.163Z,7.20
2023-05-04T06:22:07.174Z,7.50
2023-05-04T06:24:34.976Z,7.10
2023-05-04T06:27:03.470Z,6.60
2023-05-04T06:29:31.320Z,7.07
2023-05-04T06:32:00.556Z,6.82
2023-05-04T06:34:29.599Z,7.20
2023-05-04T06:36:57.727Z,6.25
2023-05-04T06:39:25.514Z,7.55
2023-05-04T06:41:55.049Z,6.72
2023-05-04T06:44:22.877Z,7.05
2023-05-04T06:46:51.357Z,7.18
2023-05-04T06:49:20.553Z,6.75
2023-05-04T06:51:48.448Z,5.88
2023-05-04T06:54:16.230Z,6.93
2023-05-04T06:56:44.066Z,7.00
2023-05-04T06:59:12.018Z,7.05
2023-05-04T07:01:39.849Z,6.75
2023-05-04T07:04:07.939Z,6.63
2023-05-04T07:06:37.304Z,6.63
2023-05-04T07:09:05.148Z,7.85
2023-05-04T07:11:32.964Z,6.65
2023-05-04T07:14:00.738Z,6.10
2023-05-04T07:16:28.628Z,6.88
2023-05-04T07:18:57.515Z,6.40
2023-05-04T07:21:28.971Z,6.53
2023-05-04T07:23:59.074Z,6.10
2023-05-04T07:26:26.865Z,6.18
2023-05-04T07:28:54.623Z,6.43
2023-05-04T07:31:22.377Z,6.72
2023-05-04T07:33:50.453Z,6.10
2023-05-04T07:36:18.273Z,7.05
2023-05-04T07:38:46.026Z,6.10
2023-05-04T07:41:15.157Z,5.97
2023-05-04T07:43:42.958Z,5.95
2023-05-04T07:46:10.902Z,6.38
2023-05-04T07:48:38.749Z,6.40
2023-05-04T07:51:06.558Z,5.80
2023-05-04T07:53:34.314Z,6.13
2023-05-04T07:56:09.186Z,6.28
2023-05-04T07:58:38.432Z,7.13
2023-05-04T08:01:06.284Z,6.25
2023-05-04T08:03:34.107Z,5.90
2023-05-04T08:06:02.073Z,6.18
2023-05-04T08:08:29.849Z,6.10
2023-05-04T08:11:08.041Z,5.63
2023-05-04T08:13:46.654Z,7.25
2023-05-04T08:16:14.516Z,5.65
2023-05-04T08:18:42.641Z,6.32
2023-05-04T08:21:10.496Z,6.00
2023-05-04T08:23:38.574Z,6.13
2023-05-04T08:26:06.805Z,6.10
2023-05-04T08:28:36.743Z,6.43
2023-05-04T08:31:06.537Z,5.78
2023-05-04T08:33:34.523Z,6.13
2023-05-04T08:36:02.481Z,5.50
2023-05-04T08:38:30.269Z,5.60
2023-05-04T08:40:58.231Z,6.75
2023-05-04T08:43:26.075Z,5.55
2023-05-04T08:45:53.976Z,5.72
2023-05-04T08:48:23.270Z,5.70
2023-05-04T08:50:51.537Z,6.07
2023-05-04T08:53:21.595Z,5.72
2023-05-04T08:55:52.407Z,5.35
2023-05-04T08:58:23.439Z,5.55
2023-05-04T09:00:52.050Z,6.40
2023-05-04T09:03:21.431Z,6.28
2023-05-04T09:05:52.501Z,5.38
2023-05-04T09:08:21.049Z,5.95
2023-05-04T09:10:48.804Z,5.45
2023-05-04T09:13:16.683Z,6.18
2023-05-04T09:15:55.337Z,6.30
2023-05-04T09:18:23.508Z,5.70
2023-05-04T09:20:52.725Z,5.63
2023-05-04T09:23:22.414Z,5.45
2023-05-04T09:25:51.889Z,5.60
2023-05-04T09:28:21.575Z,6.00
2023-05-04T09:30:49.948Z,6.22
2023-05-04T09:33:17.830Z,5.85
2023-05-04T09:35:45.629Z,5.75
2023-05-04T09:38:26.044Z,5.43
2023-05-04T09:40:53.963Z,5.63
2023-05-04T09:43:21.849Z,5.85
2023-05-04T09:45:50.600Z,6.40
2023-05-04T09:48:20.288Z,5.80
2023-05-04T09:50:53.693Z,5.85
2023-05-04T09:53:25.222Z,6.47
2023-05-04T09:56:05.752Z,6.10
2023-05-04T09:58:35.710Z,5.82
2023-05-04T10:01:03.755Z,5.97
2023-05-04T10:03:32.838Z,5.88
2023-05-04T10:06:01.857Z,5.70
2023-05-04T10:08:32.324Z,5.75
2023-05-04T10:11:00.199Z,5.93
2023-05-04T10:13:28.107Z,6.88
2023-05-04T10:16:20.057Z,6.57
2023-05-04T10:19:14.461Z,6.35
2023-05-04T10:24:38.401Z,6.00
2023-05-04T10:27:12.411Z,6.13
2023-05-04T10:29:40.736Z,6.20
2023-05-04T10:32:18.988Z,6.10
2023-05-04T10:34:46.976Z,6.68
2023-05-04T10:37:19.145Z,6.95
2023-05-04T10:39:55.337Z,6.47
2023-05-04T10:42:23.368Z,6.60
2023-05-04T10:44:52.818Z,8.07
2023-05-04T10:47:30.819Z,6.60
2023-05-04T10:50:06.367Z,6.93
2023-05-04T10:52:34.531Z,6.75
2023-05-04T10:55:05.551Z,6.30
2023-05-04T10:57:33.554Z,6.93
2023-05-04T11:00:01.672Z,7.47
2023-05-04T11:02:32.457Z,7.00
2023-05-04T11:05:04.260Z,6.63
2023-05-04T11:07:37.682Z,7.10
2023-05-04T11:10:10.508Z,6.90
2023-05-04T11:12:39.253Z,7.03
2023-05-04T11:15:08.810Z,7.35
2023-05-04T11:17:46.267Z,6.55
2023-05-04T11:20:21.658Z,7.13
2023-05-04T11:22:49.755Z,7.32
2023-05-04T11:25:27.376Z,7.32
2023-05-04T11:27:55.169Z,7.43
2023-05-04T11:30:23.102Z,7.00
2023-05-04T11:32:50.905Z,7.30
2023-05-04T11:35:19.855Z,7.60
2023-05-04T11:37:49.514Z,7.50
2023-05-04T11:40:20.587Z,7.47
2023-05-04T11:42:49.943Z,7.47
2023-05-04T11:45:19.538Z,7.70
2023-05-04T11:47:48.856Z,7.82
2023-05-04T11:50:19.505Z,7.38
2023-05-04T11:52:47.916Z,7.50
2023-05-04T11:55:28.757Z,7.35
2023-05-04T11:58:00.525Z,7.55
2023-05-04T12:00:39.438Z,7.03
2023-05-04T12:03:08.686Z,7.25
2023-05-04T12:05:38.047Z,7.32
2023-05-04T12:08:07.733Z,7.55
2023-05-04T12:10:36.838Z,7.57
2023-05-04T12:13:04.752Z,7.38
2023-05-04T12:15:34.263Z,7.18
2023-05-04T12:18:03.247Z,7.05
2023-05-04T12:20:31.720Z,7.45
2023-05-04T12:23:06.382Z,7.60
2023-05-04T12:25:44.150Z,7.38
2023-05-04T12:28:19.544Z,7.50
2023-05-04T12:30:49.869Z,8.27
2023-05-04T12:33:17.592Z,7.40
2023-05-04T12:35:45.332Z,8.07
2023-05-04T12:38:13.048Z,7.72
2023-05-04T12:40:45.006Z,7.57
2023-05-04T12:43:12.760Z,7.80
2023-05-04T12:45:40.750Z,8.02
2023-05-04T12:48:08.690Z,7.82
2023-05-04T12:50:36.512Z,7.80
2023-05-04T12:53:05.058Z,8.55
2023-05-04T12:55:32.866Z,8.57
2023-05-04T12:58:01.969Z,9.30
2023-05-04T13:00:31.406Z,9.05
2023-05-04T13:03:00.112Z,9.18
2023-05-04T13:05:29.067Z,9.57
2023-05-04T13:07:56.917Z,9.95
2023-05-04T13:10:25.516Z,8.30
2023-05-04T13:12:53.406Z,9.88
2023-05-04T13:15:22.721Z,8.80
2023-05-04T13:17:53.944Z,9.38
2023-05-04T13:20:22.680Z,9.60
2023-05-04T13:22:50.732Z,9.55
2023-05-04T13:25:18.794Z,9.60
2023-05-04T13:27:46.578Z,10.75
2023-05-04T13:30:14.939Z,12.32
2023-05-04T13:32:44.182Z,9.48
2023-05-04T13:35:11.967Z,10.70
2023-05-04T13:37:39.724Z,11.20
2023-05-04T13:40:08.705Z,10.25
2023-05-04T13:42:37.430Z,10.50
2023-05-04T13:45:06.588Z,11.15
2023-05-04T13:47:36.987Z,11.75
2023-05-04T13:50:07.553Z,10.32
2023-05-04T13:52:35.272Z,9.73
2023-05-04T13:55:03.357Z,9.73
2023-05-04T13:57:31.381Z,9.13
2023-05-04T14:00:06.954Z,9.90
2023-05-04T14:02:35.870Z,9.68
2023-05-04T14:05:04.152Z,9.57
2023-05-04T14:07:33.596Z,9.63
2023-05-04T14:10:01.523Z,10.52
2023-05-04T14:12:29.311Z,9.90
2023-05-04T14:14:57.464Z,10.20
2023-05-04T14:17:25.254Z,10.48
2023-05-04T14:19:53.048Z,10.18
2023-05-04T14:22:20.768Z,10.40
2023-05-04T14:24:50.497Z,9.48
2023-05-04T14:27:18.461Z,9.48
2023-05-04T14:29:47.853Z,8.73
2023-05-04T14:32:15.925Z,8.50
2023-05-04T14:34:43.697Z,8.27
2023-05-04T14:37:11.476Z,8.80
2023-05-04T14:39:39.710Z,8.57
2023-05-04T14:42:08.771Z,8.07
2023-05-04T14:44:36.971Z,7.90
2023-05-04T14:47:07.345Z,7.47
2023-05-04T14:49:37.541Z,8.50
2023-05-04T14:52:05.966Z,6.90
2023-05-04T14:54:33.768Z,6.38
2023-05-04T14:57:02.624Z,6.35
2023-05-04T14:59:32.039Z,6.30
2023-05-04T15:01:59.893Z,6.55
2023-05-04T15:04:27.713Z,6.35
2023-05-04T15:06:55.538Z,5.82
2023-05-04T15:09:23.270Z,6.05
2023-05-04T15:11:51.016Z,6.10
2023-05-04T15:14:18.915Z,6.15
2023-05-04T15:16:48.061Z,5.85
2023-05-04T15:19:15.805Z,5.82
2023-05-04T15:21:43.588Z,6.18
2023-05-04T15:24:11.369Z,5.68
2023-05-04T15:26:39.967Z,7.25
2023-05-04T15:29:07.698Z,7.78
2023-05-04T15:31:35.559Z,6.47
2023-05-04T15:34:04.960Z,6.65
2023-05-04T15:36:32.735Z,6.78
2023-05-04T15:39:00.523Z,6.75
2023-05-04T15:41:28.269Z,7.03
2023-05-04T15:43:56.026Z,7.90
2023-05-04T15:46:23.833Z,7.53
2023-05-04T15:48:51.607Z,7.80
2023-05-04T15:51:20.991Z,8.00
2023-05-04T15:53:48.772Z,8.00
2023-05-04T15:56:16.655Z,7.90
2023-05-04T15:58:45.093Z,8.05
2023-05-04T16:01:14.466Z,7.88
2023-05-04T16:03:43.022Z,6.82
2023-05-04T16:06:11.769Z,7.13
2023-05-04T16:08:40.939Z,7.30
2023-05-04T16:11:08.799Z,6.95
2023-05-04T16:13:36.628Z,6.55
2023-05-04T16:16:05.631Z,6.55
2023-05-04T16:18:33.427Z,6.70
2023-05-04T16:21:01.315Z,6.75
2023-05-04T16:23:29.095Z,7.78
2023-05-04T16:25:58.199Z,8.27
2023-05-04T16:28:25.908Z,9.82
2023-05-04T16:30:53.693Z,8.40
2023-05-04T16:33:21.498Z,8.75
2023-05-04T16:35:49.264Z,9.02
2023-05-04T16:38:19.383Z,8.88
2023-05-04T16:40:47.268Z,9.15
2023-05-04T16:43:16.371Z,9.25
2023-05-04T16:45:44.154Z,9.13
2023-05-04T16:48:12.057Z,9.27
2023-05-04T16:50:39.804Z,9.07
2023-05-04T16:53:07.596Z,9.23
2023-05-04T16:55:37.022Z,9.98
2023-05-04T16:58:04.825Z,8.68
2023-05-04T17:00:34.315Z,9.38
2023-05-04T17:03:02.348Z,9.75
2023-05-04T17:05:30.146Z,10.02
2023-05-04T17:07:57.932Z,10.07
2023-05-04T17:10:25.858Z,9.25
2023-05-04T17:12:54.283Z,9.02
2023-05-04T17:15:22.294Z,8.25
2023-05-04T17:17:51.453Z,9.05
2023-05-04T17:20:19.384Z,8.82
2023-05-04T17:22:47.976Z,9.75
2023-05-04T17:25:15.825Z,8.57
2023-05-04T17:27:44.804Z,10.15
2023-05-04T17:30:13.840Z,9.73
2023-05-04T17:32:41.838Z,9.80
2023-05-04T17:35:23.427Z,10.55
2023-05-04T17:37:53.921Z,8.55
2023-05-04T17:40:23.077Z,9.57
2023-05-04T17:42:50.924Z,10.15
2023-05-04T17:45:18.828Z,9.30
2023-05-04T17:47:46.660Z,11.15
2023-05-04T17:50:15.900Z,9.70
2023-05-04T17:52:43.664Z,10.52
2023-05-04T17:55:11.834Z,9.88
2023-05-04T17:57:39.595Z,9.50
2023-05-04T18:00:10.730Z,10.52
2023-05-04T18:02:38.566Z,10.05
2023-05-04T18:05:07.351Z,9.32
2023-05-04T18:07:36.551Z,9.38
2023-05-04T18:10:04.967Z,8.93
2023-05-04T18:12:34.002Z,9.23
2023-05-04T18:15:02.774Z,9.05
2023-05-04T18:17:30.604Z,8.50
2023-05-04T18:19:58.361Z,8.93
2023-05-04T18:22:26.234Z,9.00
2023-05-04T18:24:55.546Z,8.68
2023-05-04T18:27:23.331Z,8.93
2023-05-04T18:29:52.887Z,8.50
2023-05-04T18:32:20.666Z,8.65
2023-05-04T18:34:51.646Z,8.63
2023-05-04T18:37:19.473Z,8.48
2023-05-04T18:39:47.390Z,7.95
2023-05-04T18:42:16.517Z,7.97
2023-05-04T18:44:44.584Z,8.45
2023-05-04T18:47:12.307Z,8.13
2023-05-04T18:49:40.078Z,8.70
2023-05-04T18:52:08.127Z,10.07
2023-05-04T18:54:35.920Z,8.55
2023-05-04T18:57:04.611Z,9.35
2023-05-04T18:59:35.057Z,8.73
2023-05-04T19:02:02.925Z,8.63
2023-05-04T19:04:30.840Z,8.68
2023-05-04T19:06:58.862Z,9.50
2023-05-04T19:09:26.733Z,9.80
2023-05-04T19:11:54.873Z,9.23
2023-05-04T19:14:22.710Z,9.68
2023-05-04T19:16:51.867Z,9.50
2023-05-04T19:19:19.652Z,9.57
2023-05-04T19:21:48.562Z,9.27
2023-05-04T19:24:16.450Z,9.25
2023-05-04T19:26:44.272Z,9.48
2023-05-04T19:29:12.109Z,10.00
2023-05-04T19:31:40.014Z,10.02
2023-05-04T19:34:09.249Z,9.15
2023-05-04T19:36:37.060Z,9.77
2023-05-04T19:39:05.069Z,9.05
2023-05-04T19:41:32.818Z,9.50
2023-05-04T19:44:00.656Z,9.73
2023-05-04T19:46:29.741Z,8.63
2023-05-04T19:48:57.624Z,9.05
2023-05-04T19:51:26.762Z,8.63
2023-05-04T19:53:54.565Z,8.48
2023-05-04T19:56:22.305Z,8.82
2023-05-04T19:58:51.204Z,8.38
2023-05-04T20:01:19.129Z,7.90
2023-05-04T20:03:46.985Z,7.30
2023-05-04T20:06:14.828Z,8.13
2023-05-04T20:08:43.981Z,7.72
2023-05-04T20:11:13.133Z,7.45
2023-05-04T20:13:40.923Z,7.38
2023-05-04T20:16:08.720Z,7.90
2023-05-04T20:18:37.144Z,7.38
2023-05-04T20:21:05.061Z,7.75
2023-05-04T20:23:32.853Z,7.85
2023-05-04T20:26:03.570Z,7.75
2023-05-04T20:28:33.524Z,7.45
2023-05-04T20:31:01.504Z,8.25
2023-05-04T20:33:29.323Z,6.97
2023-05-04T20:35:57.105Z,7.00
2023-05-04T20:38:25.149Z,7.68
2023-05-04T20:40:53.022Z,8.15
2023-05-04T20:43:22.197Z,6.97
2023-05-04T20:45:49.971Z,7.75
2023-05-04T20:48:17.706Z,7.55
2023-05-04T20:50:45.439Z,7.60
2023-05-04T20:53:13.258Z,8.40
2023-05-04T20:55:41.345Z,7.57
2023-05-04T20:58:09.074Z,7.53
2023-05-04T21:00:38.214Z,7.43
2023-05-04T21:03:06.010Z,7.80
2023-05-04T21:05:33.812Z,7.93
2023-05-04T21:08:01.802Z,8.95
2023-05-04T21:10:29.657Z,7.40
2023-05-04T21:12:58.374Z,8.38
2023-05-04T21:15:26.616Z,7.70
2023-05-04T21:17:55.838Z,8.15
2023-05-04T21:20:23.884Z,7.07
2023-05-04T21:22:51.767Z,7.30
2023-05-04T21:25:19.499Z,7.65
2023-05-04T21:27:47.243Z,7.80
2023-05-04T21:30:15.166Z,7.63
2023-05-04T21:32:42.966Z,7.50
2023-05-04T21:35:12.224Z,7.10
2023-05-04T21:37:40.032Z,7.93
2023-05-04T21:40:09.669Z,7.15
2023-05-04T21:42:37.623Z,7.35
2023-05-04T21:45:06.471Z,7.22
2023-05-04T21:47:34.290Z,7.53
2023-05-04T21:50:02.145Z,7.78
2023-05-04T21:52:31.261Z,8.75
2023-05-04T21:54:59.074Z,7.85
2023-05-04T21:57:26.804Z,8.02
2023-05-04T21:59:54.552Z,8.32
2023-05-04T22:02:22.312Z,8.45
2023-05-04T22:04:50.029Z,8.18
2023-05-04T22:07:17.810Z,8.48
2023-05-04T22:09:46.915Z,8.27
2023-05-04T22:12:14.640Z,8.65
2023-05-04T22:14:42.634Z,8.65
2023-05-04T22:17:10.490Z,8.38
2023-05-04T22:19:38.237Z,8.15
2023-05-04T22:22:06.341Z,8.77
2023-05-04T22:24:34.078Z,8.93
2023-05-04T22:27:03.443Z,10.95
2023-05-04T22:29:31.212Z,21.67
2023-05-04T22:31:59.073Z,10.52
2023-05-04T22:34:26.821Z,8.88
2023-05-04T22:36:54.580Z,9.52
2023-05-04T22:39:22.982Z,8.82
2023-05-04T22:41:50.732Z,10.30
2023-05-04T22:44:19.830Z,9.43
2023-05-04T22:46:49.273Z,10.38
2023-05-04T22:49:18.423Z,9.75
2023-05-04T22:51:46.137Z,10.10
2023-05-04T22:54:13.860Z,10.10
2023-05-04T22:56:41.699Z,9.90
2023-05-04T22:59:09.460Z,10.38
2023-05-04T23:01:42.575Z,9.77
2023-05-04T23:04:11.361Z,10.05
2023-05-04T23:06:39.578Z,10.27
2023-05-04T23:09:07.782Z,10.95
2023-05-04T23:11:35.507Z,10.27
2023-05-04T23:14:03.320Z,11.75
2023-05-04T23:16:31.209Z,10.50
2023-05-04T23:19:00.374Z,10.65
2023-05-04T23:21:28.342Z,10.23
2023-05-04T23:23:56.244Z,9.85
2023-05-04T23:26:24.163Z,9.75
2023-05-04T23:28:51.938Z,11.20
2023-05-04T23:31:19.903Z,10.75
2023-05-04T23:33:47.668Z,10.55
2023-05-04T23:36:16.824Z,9.88
2023-05-04T23:38:44.539Z,10.55
2023-05-04T23:41:12.564Z,10.80
2023-05-04T23:43:40.400Z,11.43
2023-05-04T23:46:08.239Z,10.82
2023-05-04T23:48:36.032Z,11.23
2023-05-04T23:51:04.745Z,10.95
2023-05-04T23:53:35.250Z,10.18
2023-05-04T23:56:04.638Z,10.40
2023-05-04T23:58:33.561Z,10.48
